Lee, New Hampshire
Current Conditions -  °F | °C
As of 2:58 AM on Thursday 18 Dec 2014 (Local Time) from KPSM Reporting Station
Light Rain Light Rain  
Wind Chill: 33°   Ceiling: 4800
Heat Index: 39°   Visibility: 10mi
Dew Point: 34°   Wind: 9mph
Humidity: 82%   Direction: 270°W
Pressure: 29.67"   Gusts: NA
Location:  43.12°N, 71.02°W
Report Text: KPSM 180658Z 27008KT 10SM -RA FEW022 OVC048 04/01 A2967 RMK AO2A SLP051 P0000 T00410013
Loading
Personal Weather Stations






























Interactive Weather Map New forecast layout! Learn more

10-Day Weather Forecast

Advertisements
Track Severe Weather on mobile